Time;durP1;ratioP1;P1;durP2;ratioP2;P2;SDS_P1;SDS_P2;PMS_P1;PMS_P2;Temp;Humidity;BMP_temperature;BMP_pressure;BME280_temperature;BME280_humidity;BME280_pressure;Samples;Min_cycle;Max_cycle;Signal;HPM_P1;HPM_P2
2022/08/01 00:02:02;;;;;;;6.60;5.53;;;;;;;20.04;54.84;95366.75;5085245;28;20031;-79
2022/08/01 00:04:28;;;;;;;6.20;5.50;;;;;;;20.05;54.53;95369.22;5067618;28;20054;-80
2022/08/01 00:06:53;;;;;;;6.50;5.78;;;;;;;20.03;54.97;95370.53;5066743;28;20054;-80
2022/08/01 00:09:19;;;;;;;5.80;5.30;;;;;;;19.97;54.64;95372.28;5085790;28;20024;-80
2022/08/01 00:11:44;;;;;;;6.60;6.00;;;;;;;19.69;55.25;95362.94;5084898;28;20101;-79
2022/08/01 00:14:10;;;;;;;7.32;6.03;;;;;;;19.66;55.32;95360.69;5085252;28;20016;-80
2022/08/01 00:16:36;;;;;;;6.57;5.97;;;;;;;19.71;55.23;95360.81;5066725;28;20028;-79
2022/08/01 00:19:01;;;;;;;7.38;6.43;;;;;;;19.64;55.35;95369.09;5084934;28;20024;-79
2022/08/01 00:21:27;;;;;;;7.18;6.47;;;;;;;19.74;55.25;95368.50;5067316;28;20077;-79
2022/08/01 00:23:52;;;;;;;6.95;5.97;;;;;;;19.67;55.34;95373.25;5084488;28;20027;-80
2022/08/01 00:26:18;;;;;;;6.60;6.03;;;;;;;19.69;55.16;95368.38;5085040;28;20024;-79
2022/08/01 00:28:43;;;;;;;7.03;6.38;;;;;;;19.57;55.54;95371.13;5084593;28;20115;-79
2022/08/01 00:31:09;;;;;;;7.38;6.03;;;;;;;19.48;55.40;95365.19;5085395;28;20525;-80
2022/08/01 00:33:34;;;;;;;6.63;6.03;;;;;;;19.61;55.18;95366.84;5084806;28;20034;-79
2022/08/01 00:36:00;;;;;;;6.45;5.65;;;;;;;19.64;54.93;95353.59;5085123;28;20453;-79
2022/08/01 00:38:25;;;;;;;7.05;6.35;;;;;;;19.67;54.67;95359.66;5066293;28;20419;-79
2022/08/01 00:40:52;;;;;;;8.10;6.03;;;;;;;19.62;54.63;95352.16;5084833;28;20040;-80
2022/08/01 00:43:17;;;;;;;6.38;5.88;;;;;;;19.55;54.97;95355.03;5067025;28;20514;-80
2022/08/01 00:45:42;;;;;;;6.63;6.00;;;;;;;19.58;54.55;95357.28;5066413;28;20402;-80
2022/08/01 00:48:08;;;;;;;6.75;5.80;;;;;;;19.48;54.95;95355.13;5050437;28;20059;-79
2022/08/01 00:50:33;;;;;;;6.40;5.80;;;;;;;19.43;55.19;95351.47;5066335;28;20020;-79
2022/08/01 00:52:59;;;;;;;6.30;5.70;;;;;;;19.25;55.60;95354.06;5050268;28;20537;-79
2022/08/01 00:55:24;;;;;;;7.95;6.10;;;;;;;19.19;55.88;95356.88;5049741;28;20096;-79
2022/08/01 00:57:50;;;;;;;6.40;5.82;;;;;;;18.83;56.72;95345.91;5050053;28;20148;-79
2022/08/01 01:00:15;;;;;;;6.15;5.55;;;;;;;19.05;56.11;95335.31;5084528;28;20028;-80
2022/08/01 01:02:41;;;;;;;7.97;5.70;;;;;;;19.12;55.50;95338.78;5066282;28;20498;-79
2022/08/01 01:05:07;;;;;;;5.97;5.38;;;;;;;19.08;55.58;95342.16;5067052;28;20028;-79
2022/08/01 01:07:35;;;;;;;6.03;5.45;;;;;;;18.90;55.78;95328.44;5066358;28;20036;-80
2022/08/01 01:10:09;;;;;;;5.78;5.15;;;;;;;19.04;55.47;95333.66;5067208;28;20027;-79
2022/08/01 01:12:43;;;;;;;8.18;5.00;;;;;;;19.08;55.58;95334.84;5049809;28;20028;-79
2022/08/01 01:15:23;;;;;;;5.95;4.60;;;;;;;19.10;55.49;95337.38;5050189;28;20046;-79
2022/08/01 01:17:50;;;;;;;7.88;5.35;;;;;;;19.06;55.30;95334.25;5051836;28;20427;-79
2022/08/01 01:20:17;;;;;;;5.32;4.82;;;;;;;18.87;55.35;95334.34;5066539;28;20081;-79
2022/08/01 01:22:53;;;;;;;5.90;5.00;;;;;;;18.88;55.35;95335.16;5050441;28;20025;-80
2022/08/01 01:25:34;;;;;;;5.00;4.50;;;;;;;18.81;55.18;95329.84;5050348;28;20078;-80
2022/08/01 01:28:08;;;;;;;5.55;4.07;;;;;;;18.64;55.25;95322.34;5084483;28;20036;-78
2022/08/01 01:30:34;;;;;;;5.25;3.97;;;;;;;18.59;55.41;95324.06;5084333;28;20120;-79
2022/08/01 01:33:03;;;;;;;6.20;4.07;;;;;;;18.57;55.63;95323.50;5066362;28;20020;-79
2022/08/01 01:35:32;;;;;;;6.43;3.83;;;;;;;18.36;55.81;95317.50;5066925;28;20175;-80
2022/08/01 01:38:21;;;;;;;4.28;3.70;;;;;;;18.41;55.41;95320.34;5069746;28;20043;-79
2022/08/01 01:40:47;;;;;;;5.00;4.00;;;;;;;18.46;55.11;95316.97;5059548;28;20180;-79
2022/08/01 01:43:12;;;;;;;5.05;3.67;;;;;;;18.56;55.44;95313.66;5070059;28;20057;-80
2022/08/01 01:45:39;;;;;;;5.22;3.97;;;;;;;18.63;55.83;95309.81;5053658;28;20029;-79
2022/08/01 01:48:04;;;;;;;8.23;3.90;;;;;;;18.69;54.54;95310.78;5070048;28;20020;-79
2022/08/01 01:50:30;;;;;;;4.28;3.40;;;;;;;18.77;54.61;95312.31;5052942;28;20451;-79
2022/08/01 01:52:55;;;;;;;4.75;3.60;;;;;;;18.85;54.55;95314.72;5053599;28;20043;-78
2022/08/01 01:55:21;;;;;;;5.38;3.35;;;;;;;18.89;53.92;95306.94;5052936;28;20031;-79
2022/08/01 01:57:46;;;;;;;4.20;3.80;;;;;;;18.84;53.92;95301.38;5053350;28;20111;-78
2022/08/01 02:00:12;;;;;;;4.55;3.53;;;;;;;18.82;54.27;95295.31;5069572;28;20371;-78
2022/08/01 02:02:38;;;;;;;4.65;3.72;;;;;;;18.79;54.42;95299.34;5053019;28;20020;-79
2022/08/01 02:05:05;;;;;;;6.05;3.50;;;;;;;18.63;54.21;95301.66;5052726;28;20406;-78
2022/08/01 02:07:30;;;;;;;4.82;3.40;;;;;;;18.71;54.02;95297.78;5052472;28;20032;-79
2022/08/01 02:09:56;;;;;;;8.57;3.88;;;;;;;18.67;54.25;95301.22;5069730;28;20337;-79
2022/08/01 02:12:21;;;;;;;4.97;3.47;;;;;;;18.59;55.09;95300.47;5069385;28;20028;-79
2022/08/01 02:14:47;;;;;;;3.85;3.45;;;;;;;18.65;55.72;95304.97;5053204;28;20116;-79
2022/08/01 02:17:14;;;;;;;6.05;3.55;;;;;;;18.70;55.67;95306.19;5052715;28;20071;-79
2022/08/01 02:19:40;;;;;;;3.97;3.58;;;;;;;18.75;54.48;95309.00;5053031;28;20020;-79
2022/08/01 02:22:11;;;;;;;9.52;4.28;;;;;;;18.76;54.40;95307.97;5052810;28;20039;-79
2022/08/01 02:24:50;;;;;;;4.22;3.70;;;;;;;18.78;54.59;95311.28;5052670;28;20069;-80
2022/08/01 02:27:24;;;;;;;4.82;4.20;;;;;;;18.80;53.85;95305.63;5054449;28;20050;-79
2022/08/01 02:30:00;;;;;;;4.63;4.18;;;;;;;18.78;54.06;95308.56;5053101;28;20035;-79
2022/08/01 02:32:32;;;;;;;5.00;3.95;;;;;;;18.74;54.09;95301.91;5053159;28;20427;-79
2022/08/01 02:34:58;;;;;;;5.88;3.50;;;;;;;18.72;53.93;95310.31;5052471;28;20020;-79
2022/08/01 02:37:23;;;;;;;4.78;3.95;;;;;;;18.72;54.44;95302.16;5068707;28;20028;-79
2022/08/01 02:39:50;;;;;;;6.60;4.20;;;;;;;18.82;54.40;95309.75;5068465;28;20109;-79
2022/08/01 02:42:16;;;;;;;5.85;4.43;;;;;;;18.74;54.81;95313.63;5052306;28;20031;-80
2022/08/01 02:44:41;;;;;;;5.22;4.38;;;;;;;18.85;54.36;95309.28;5052398;28;20317;-79
2022/08/01 02:47:07;;;;;;;4.82;4.30;;;;;;;18.82;54.58;95303.47;5051651;28;20472;-79
2022/08/01 02:49:44;;;;;;;6.97;4.93;;;;;;;18.83;54.40;95303.25;5068739;28;20039;-78
2022/08/01 02:52:11;;;;;;;6.53;4.97;;;;;;;18.80;54.44;95295.56;5074178;28;20422;-80
2022/08/01 02:54:37;;;;;;;5.93;4.80;;;;;;;18.87;54.19;95295.47;5052339;28;20031;-79
2022/08/01 02:57:03;;;;;;;6.00;4.97;;;;;;;18.82;54.22;95293.44;5067977;28;20020;-79
2022/08/01 02:59:29;;;;;;;6.47;5.00;;;;;;;18.81;54.42;95296.41;5051792;28;20063;-78
2022/08/01 03:01:55;;;;;;;5.55;4.70;;;;;;;18.81;54.27;95302.66;5051871;28;20134;-78
2022/08/01 03:04:22;;;;;;;5.53;4.60;;;;;;;18.82;53.76;95301.59;5051572;28;20488;-79
2022/08/01 03:06:47;;;;;;;5.18;4.47;;;;;;;18.76;53.95;95302.53;5051983;28;20066;-79
2022/08/01 03:09:12;;;;;;;5.45;4.30;;;;;;;18.58;54.37;95308.84;5051579;28;20056;-79
2022/08/01 03:11:38;;;;;;;6.90;5.80;;;;;;;18.61;54.32;95306.50;5051920;28;20020;-79
2022/08/01 03:14:05;;;;;;;7.30;5.15;;;;;;;18.51;54.72;95307.06;5068183;28;20375;-79
2022/08/01 03:16:31;;;;;;;5.07;4.57;;;;;;;18.59;53.97;95305.91;5068763;28;20486;-79
2022/08/01 03:18:56;;;;;;;7.07;4.50;;;;;;;18.62;54.21;95310.06;5051790;28;20034;-79
2022/08/01 03:21:22;;;;;;;6.82;4.28;;;;;;;18.50;54.13;95308.13;5051731;28;20028;-79
2022/08/01 03:23:47;;;;;;;5.78;4.63;;;;;;;18.42;53.63;95292.16;5068510;28;20024;-79
2022/08/01 03:26:13;;;;;;;5.40;4.40;;;;;;;18.41;54.02;95299.47;5050884;28;20020;-80
2022/08/01 03:28:38;;;;;;;6.60;5.07;;;;;;;18.32;54.22;95297.28;5067963;28;20770;-79
2022/08/01 03:31:04;;;;;;;6.28;4.10;;;;;;;18.24;54.68;95287.59;5050845;28;20422;-79
2022/08/01 03:33:30;;;;;;;5.70;4.15;;;;;;;18.26;54.33;95293.63;5051210;28;20035;-80
2022/08/01 03:35:55;;;;;;;6.45;4.28;;;;;;;18.12;54.81;95293.78;5067188;28;20039;-81
2022/08/01 03:38:26;;;;;;;5.13;4.28;;;;;;;18.28;54.12;95296.94;5064022;28;20033;-78
2022/08/01 03:40:56;;;;;;;5.53;3.90;;;;;;;18.37;53.45;95303.69;5064725;28;20056;-79
2022/08/01 03:43:35;;;;;;;4.82;4.15;;;;;;;18.28;54.18;95302.38;5065625;28;20032;-79
2022/08/01 03:46:07;;;;;;;6.72;4.28;;;;;;;18.30;54.39;95305.66;5048280;28;20016;-80
2022/08/01 03:48:33;;;;;;;7.53;4.43;;;;;;;18.08;54.57;95303.41;5048628;28;20437;-79
2022/08/01 03:50:59;;;;;;;7.22;4.03;;;;;;;18.21;54.21;95304.31;5063764;28;20021;-79
2022/08/01 03:53:25;;;;;;;5.72;3.80;;;;;;;18.21;55.21;95312.47;5047497;28;20035;-80
2022/08/01 03:55:51;;;;;;;6.05;4.78;;;;;;;18.28;54.84;95311.31;5068337;28;20459;-78
2022/08/01 03:58:16;;;;;;;7.38;4.95;;;;;;;18.34;55.16;95309.59;5032745;28;20043;-79
2022/08/01 04:00:42;;;;;;;5.47;4.38;;;;;;;18.29;55.12;95309.44;5047266;28;20406;-78
2022/08/01 04:03:07;;;;;;;6.15;4.60;;;;;;;18.27;54.80;95311.56;5065412;28;20239;-79
2022/08/01 04:05:33;;;;;;;11.55;5.10;;;;;;;18.32;54.97;95319.84;5064028;28;20028;-79
2022/08/01 04:08:01;;;;;;;6.55;4.97;;;;;;;18.33;54.80;95317.97;5063869;28;20047;-80
2022/08/01 04:10:27;;;;;;;10.25;4.75;;;;;;;18.32;54.76;95317.13;5063397;28;20133;-78
2022/08/01 04:12:52;;;;;;;9.82;5.10;;;;;;;18.33;55.30;95313.34;5063758;28;20462;-79
2022/08/01 04:15:17;;;;;;;7.97;5.20;;;;;;;18.28;55.37;95307.78;5065158;28;20024;-79
2022/08/01 04:17:43;;;;;;;10.43;5.22;;;;;;;18.34;55.19;95319.63;5063859;28;20025;-79
2022/08/01 04:20:10;;;;;;;9.77;5.00;;;;;;;18.29;55.29;95314.88;5030499;28;20025;-80
2022/08/01 04:22:36;;;;;;;14.48;5.15;;;;;;;18.38;55.36;95323.50;5048698;28;20047;-80
2022/08/01 04:25:03;;;;;;;9.70;4.85;;;;;;;18.48;55.04;95322.97;5064707;28;20419;-80
2022/08/01 04:27:32;;;;;;;9.05;5.00;;;;;;;18.51;55.71;95328.78;5063474;28;20571;-79
2022/08/01 04:29:58;;;;;;;13.88;4.90;;;;;;;18.58;55.21;95328.69;5030920;28;20237;-79
2022/08/01 04:32:24;;;;;;;6.13;4.93;;;;;;;18.52;54.90;95319.56;5064882;28;20391;-81
2022/08/01 04:34:50;;;;;;;7.97;5.88;;;;;;;18.58;54.73;95308.84;5046917;28;20033;-80
2022/08/01 04:37:16;;;;;;;6.63;4.68;;;;;;;18.59;54.33;95322.19;5030254;28;20035;-80
2022/08/01 04:39:41;;;;;;;10.32;4.97;;;;;;;18.61;54.05;95320.06;5030345;28;20041;-80
2022/08/01 04:42:07;;;;;;;10.88;5.40;;;;;;;18.65;54.54;95323.97;5065080;28;20025;-80
2022/08/01 04:44:32;;;;;;;6.43;4.65;;;;;;;18.72;54.38;95325.75;5029996;28;20522;-80
2022/08/01 04:47:02;;;;;;;7.45;4.88;;;;;;;18.84;54.28;95329.38;5063558;28;20029;-80
2022/08/01 04:49:31;;;;;;;7.70;4.95;;;;;;;18.89;53.91;95332.19;5064413;28;20158;-79
2022/08/01 04:52:02;;;;;;;8.77;5.82;;;;;;;18.80;54.57;95322.72;5064701;28;20047;-79
2022/08/01 04:54:28;;;;;;;9.60;4.57;;;;;;;18.89;54.28;95315.88;5063203;28;20125;-80
2022/08/01 04:56:58;;;;;;;6.80;5.07;;;;;;;19.13;53.96;95321.44;5046690;28;20028;-80
2022/08/01 04:59:42;;;;;;;6.68;4.53;;;;;;;19.44;53.54;95321.31;5063698;28;20063;-81
2022/08/01 05:02:11;;;;;;;7.40;4.47;;;;;;;19.72;52.62;95316.22;5035188;28;20029;-80
2022/08/01 05:04:37;;;;;;;5.72;4.25;;;;;;;19.79;52.68;95321.53;5062886;28;20028;-81
2022/08/01 05:07:03;;;;;;;5.22;4.45;;;;;;;20.03;52.44;95322.38;5046752;28;20029;-80
2022/08/01 05:09:30;;;;;;;5.70;3.85;;;;;;;20.15;52.42;95318.78;5064082;28;20028;-79
2022/08/01 05:11:58;;;;;;;4.80;4.03;;;;;;;20.13;51.77;95311.66;5067341;28;20027;-79
2022/08/01 05:14:24;;;;;;;5.38;3.85;;;;;;;20.19;51.23;95309.91;5068075;28;20027;-79
2022/08/01 05:16:49;;;;;;;6.28;3.83;;;;;;;20.49;50.42;95319.72;5067227;28;20028;-80
2022/08/01 05:19:14;;;;;;;7.55;3.83;;;;;;;20.53;50.74;95313.78;5068245;28;20400;-80
2022/08/01 05:21:40;;;;;;;5.43;3.72;;;;;;;20.69;50.10;95312.19;5066812;28;20021;-80
2022/08/01 05:24:06;;;;;;;5.30;3.67;;;;;;;20.74;50.16;95317.72;5066819;28;20028;-80
2022/08/01 05:26:31;;;;;;;5.35;3.83;;;;;;;20.81;50.10;95299.31;5066785;28;20100;-80
2022/08/01 05:28:56;;;;;;;6.43;3.90;;;;;;;20.93;50.40;95318.38;5066744;28;20032;-80
2022/08/01 05:31:22;;;;;;;6.30;3.75;;;;;;;21.09;49.67;95310.44;5068207;28;20033;-79
2022/08/01 05:33:47;;;;;;;6.00;3.90;;;;;;;21.41;50.23;95307.13;5066901;28;20032;-81
2022/08/01 05:36:13;;;;;;;7.68;3.95;;;;;;;21.22;49.78;95314.75;5066999;28;20035;-80
2022/08/01 05:38:38;;;;;;;7.15;3.75;;;;;;;20.99;50.88;95311.09;5074522;28;20040;-80
2022/08/01 05:41:04;;;;;;;4.78;3.67;;;;;;;21.01;51.61;95311.69;5088001;28;20020;-80
2022/08/01 05:43:29;;;;;;;4.93;3.85;;;;;;;21.14;50.20;95315.16;5052972;28;20024;-80
2022/08/01 05:45:55;;;;;;;7.85;3.53;;;;;;;21.37;49.96;95316.91;5087612;28;20055;-80
2022/08/01 05:48:20;;;;;;;4.55;3.40;;;;;;;21.65;48.93;95317.03;5069614;28;20032;-80
2022/08/01 05:50:47;;;;;;;6.00;3.88;;;;;;;21.84;48.67;95309.44;5087807;28;20050;-79
2022/08/01 05:53:13;;;;;;;4.53;3.15;;;;;;;21.53;49.58;95308.94;5069943;28;20028;-79
2022/08/01 05:55:38;;;;;;;4.22;3.28;;;;;;;21.36;49.62;95313.34;5088157;28;20107;-80
2022/08/01 05:58:03;;;;;;;5.32;3.45;;;;;;;21.19;49.84;95309.78;5087804;28;20041;-80
2022/08/01 06:00:29;;;;;;;5.05;3.40;;;;;;;21.12;49.87;95310.78;5087881;28;20071;-80
2022/08/01 06:02:54;;;;;;;6.43;3.40;;;;;;;20.91;50.14;95309.56;5069522;28;20074;-80
2022/08/01 06:05:20;;;;;;;3.95;3.20;;;;;;;21.15;49.63;95314.09;5069665;28;20016;-80
2022/08/01 06:07:45;;;;;;;3.90;3.05;;;;;;;21.04;49.51;95311.19;5069267;28;20231;-79
2022/08/01 06:10:11;;;;;;;3.53;2.90;;;;;;;20.99;49.25;95317.38;5087586;28;20028;-80
2022/08/01 06:12:36;;;;;;;3.25;2.78;;;;;;;21.33;47.71;95311.13;5069811;28;20032;-79
2022/08/01 06:15:05;;;;;;;4.22;2.65;;;;;;;21.47;47.30;95314.31;5069437;28;20034;-81
2022/08/01 06:17:30;;;;;;;4.07;2.58;;;;;;;21.42;46.28;95307.97;5069584;28;20043;-81
2022/08/01 06:19:56;;;;;;;4.15;2.53;;;;;;;21.25;45.45;95306.06;5069854;28;20028;-80
2022/08/01 06:22:21;;;;;;;4.35;2.67;;;;;;;21.29;45.39;95307.25;5086621;28;20031;-79
2022/08/01 06:24:47;;;;;;;5.68;2.58;;;;;;;21.33;45.28;95300.19;5068787;28;20036;-80
2022/08/01 06:27:12;;;;;;;3.78;2.45;;;;;;;21.36;45.06;95298.91;5068800;28;20026;-80
2022/08/01 06:29:37;;;;;;;6.28;2.30;;;;;;;21.73;44.10;95298.31;5087583;28;20024;-80
2022/08/01 06:32:03;;;;;;;4.97;2.40;;;;;;;21.79;43.25;95302.00;5068931;28;20023;-80
2022/08/01 06:34:29;;;;;;;5.68;2.15;;;;;;;21.99;41.65;95300.59;5088289;28;20452;-80
2022/08/01 06:36:54;;;;;;;3.72;2.30;;;;;;;21.88;43.51;95310.56;5068845;28;20020;-80
2022/08/01 06:39:20;;;;;;;3.00;2.30;;;;;;;21.94;42.78;95303.28;5087480;28;20044;-80
2022/08/01 06:41:48;;;;;;;3.92;2.20;;;;;;;22.04;42.58;95291.69;5069233;28;20031;-79
2022/08/01 06:44:13;;;;;;;2.60;2.00;;;;;;;22.17;41.79;95287.72;5087630;28;20036;-80
2022/08/01 06:46:39;;;;;;;3.65;2.42;;;;;;;22.50;41.45;95282.34;5068342;28;20048;-82
2022/08/01 06:49:04;;;;;;;2.95;2.30;;;;;;;22.44;41.98;95273.28;5052046;28;20028;-81
2022/08/01 06:51:30;;;;;;;4.65;2.05;;;;;;;22.56;42.36;95276.69;5069448;28;20034;-80
2022/08/01 06:53:55;;;;;;;6.18;2.33;;;;;;;22.63;42.24;95275.69;5068516;28;20193;-80
2022/08/01 06:56:21;;;;;;;4.63;2.40;;;;;;;22.81;41.35;95271.75;5069004;28;20039;-81
2022/08/01 06:58:46;;;;;;;2.65;2.10;;;;;;;22.53;42.14;95276.38;5068644;28;20036;-81
2022/08/01 07:01:12;;;;;;;3.92;2.20;;;;;;;22.60;41.29;95272.38;5068419;28;20024;-80
2022/08/01 07:03:37;;;;;;;5.10;2.22;;;;;;;22.62;41.07;95263.91;5051476;28;20031;-81
2022/08/01 07:06:03;;;;;;;3.45;2.00;;;;;;;22.40;41.28;95261.19;5067839;28;20099;-81
2022/08/01 07:08:28;;;;;;;4.45;2.25;;;;;;;22.42;42.24;95256.31;5068007;28;20028;-81
2022/08/01 07:10:54;;;;;;;4.30;2.00;;;;;;;22.73;41.15;95270.34;5068075;28;20517;-81
2022/08/01 07:13:22;;;;;;;4.30;2.25;;;;;;;22.59;41.43;95265.25;5086374;28;20031;-80
2022/08/01 07:15:48;;;;;;;4.97;2.30;;;;;;;22.33;41.48;95251.31;5068423;28;20031;-81
2022/08/01 07:18:13;;;;;;;2.78;2.28;;;;;;;22.21;41.78;95270.59;5067885;28;20032;-80
2022/08/01 07:20:39;;;;;;;3.60;2.30;;;;;;;22.49;40.47;95265.13;5086322;28;20035;-81
2022/08/01 07:23:04;;;;;;;5.05;2.25;;;;;;;22.51;41.00;95281.25;5067434;28;20024;-81
2022/08/01 07:25:30;;;;;;;5.45;2.90;;;;;;;22.62;40.88;95271.31;5067603;28;20137;-80
2022/08/01 07:27:55;;;;;;;5.28;2.30;;;;;;;22.59;41.02;95270.72;5067748;28;20032;-79
2022/08/01 07:30:21;;;;;;;6.70;2.50;;;;;;;22.37;41.35;95273.47;5085955;28;20402;-80
2022/08/01 07:32:46;;;;;;;5.15;2.70;;;;;;;22.44;41.22;95267.81;5085756;28;20027;-80
2022/08/01 07:35:12;;;;;;;3.55;2.40;;;;;;;22.67;40.66;95274.06;5084206;28;20027;-80
2022/08/01 07:37:37;;;;;;;4.93;3.00;;;;;;;22.38;41.94;95264.19;5067274;28;20023;-80
2022/08/01 07:40:05;;;;;;;5.78;2.60;;;;;;;22.56;41.12;95265.75;5067548;28;20048;-80
2022/08/01 07:42:31;;;;;;;3.08;2.65;;;;;;;22.47;41.97;95265.38;5050888;28;20028;-81
2022/08/01 07:44:56;;;;;;;3.90;2.85;;;;;;;22.55;41.99;95264.13;5067669;28;20024;-79
2022/08/01 07:47:25;;;;;;;3.45;2.67;;;;;;;22.71;42.25;95256.91;5085980;28;20031;-80
2022/08/01 07:49:51;;;;;;;4.68;2.53;;;;;;;22.69;42.26;95270.00;5050603;28;20032;-81
2022/08/01 07:52:16;;;;;;;9.75;2.90;;;;;;;22.63;43.30;95253.81;5051153;28;20031;-81
2022/08/01 07:54:42;;;;;;;5.13;2.50;;;;;;;22.76;42.03;95260.78;5067244;28;20028;-82
2022/08/01 07:57:07;;;;;;;3.80;2.40;;;;;;;22.49;42.86;95248.72;5067442;28;20024;-80
2022/08/01 07:59:33;;;;;;;4.25;2.60;;;;;;;22.35;41.27;95251.88;5050913;28;20043;-79
2022/08/01 08:01:58;;;;;;;3.95;2.35;;;;;;;22.18;40.87;95257.41;5067130;28;20490;-79
2022/08/01 08:04:24;;;;;;;4.90;2.60;;;;;;;22.23;41.12;95257.47;5066753;28;20023;-80
2022/08/01 08:06:50;;;;;;;6.00;2.70;;;;;;;22.39;41.82;95251.38;5085146;28;20035;-79
2022/08/01 08:09:16;;;;;;;7.63;2.70;;;;;;;22.41;42.07;95262.88;5066821;28;20031;-79
2022/08/01 08:11:43;;;;;;;3.03;2.50;;;;;;;22.50;41.88;95253.13;5067495;28;20028;-80
2022/08/01 08:14:08;;;;;;;4.30;2.67;;;;;;;22.64;40.37;95260.94;5067827;28;20023;-79
2022/08/01 08:16:34;;;;;;;4.88;2.90;;;;;;;22.59;40.54;95257.06;5067269;28;20051;-80
2022/08/01 08:18:59;;;;;;;5.85;3.58;;;;;;;22.61;41.20;95256.81;5067246;28;20028;-80
2022/08/01 08:21:25;;;;;;;5.45;2.58;;;;;;;22.68;41.57;95256.59;5084597;28;20059;-80
2022/08/01 08:26:35;;;;;;;12.63;3.05;;;;;;;22.87;40.37;95257.06;5085294;28;20517;-80
2022/08/01 08:29:00;;;;;;;4.32;2.20;;;;;;;22.61;39.76;95256.81;5084790;28;20414;-80
2022/08/01 08:31:26;;;;;;;3.70;2.90;;;;;;;22.65;40.05;95247.00;5084963;28;20028;-80
2022/08/01 08:33:52;;;;;;;3.75;2.28;;;;;;;22.64;40.01;95250.00;5066872;28;20430;-80
2022/08/01 08:36:17;;;;;;;5.30;2.75;;;;;;;22.59;39.62;95256.19;5066783;28;20471;-80
2022/08/01 08:38:43;;;;;;;4.65;3.10;;;;;;;22.67;39.67;95249.47;5084243;28;20036;-80
2022/08/01 08:41:08;;;;;;;4.32;2.42;;;;;;;22.70;39.10;95260.72;5085105;28;20107;-80
2022/08/01 08:43:35;;;;;;;4.50;2.08;;;;;;;22.84;37.89;95247.44;5066757;28;20497;-79
2022/08/01 08:46:00;;;;;;;4.63;2.25;;;;;;;22.68;38.02;95256.59;5086146;28;20032;-83
2022/08/01 08:48:25;;;;;;;4.38;2.13;;;;;;;22.97;37.58;95259.84;5070991;28;20035;-79
2022/08/01 08:50:51;;;;;;;5.22;2.20;;;;;;;22.95;38.34;95250.28;5054663;28;20097;-79
2022/08/01 08:53:16;;;;;;;6.30;2.45;;;;;;;22.96;39.02;95246.44;5071107;28;20426;-80
2022/08/01 08:55:42;;;;;;;6.55;2.42;;;;;;;23.02;38.35;95253.59;5070733;28;20020;-79
2022/08/01 08:58:11;;;;;;;3.17;2.13;;;;;;;23.08;39.27;95238.06;5070449;28;20032;-78
2022/08/01 09:00:36;;;;;;;3.97;2.42;;;;;;;23.05;39.47;95236.66;5053862;28;20094;-79
2022/08/01 09:03:02;;;;;;;3.88;2.47;;;;;;;22.99;38.62;95228.72;5070526;28;20016;-79
2022/08/01 09:05:27;;;;;;;6.70;2.40;;;;;;;22.96;38.73;95235.50;5070777;28;20032;-78
2022/08/01 09:07:53;;;;;;;6.15;2.30;;;;;;;23.03;38.22;95238.03;5070249;28;20022;-80
2022/08/01 09:10:18;;;;;;;5.97;2.40;;;;;;;22.99;38.90;95240.47;5054310;28;20036;-80
2022/08/01 09:13:10;;;;;;;8.30;2.50;;;;;;;23.24;38.15;95233.53;5053947;28;20117;-79
2022/08/01 09:15:46;;;;;;;2.60;2.03;;;;;;;23.42;37.55;95236.97;5070371;28;20149;-80
2022/08/01 09:18:33;;;;;;;3.20;2.10;;;;;;;23.63;37.33;95242.56;5053986;28;20032;-80
2022/08/01 09:21:08;;;;;;;3.53;2.20;;;;;;;23.51;37.66;95218.97;5070953;28;20020;-81
2022/08/01 09:23:54;;;;;;;12.93;2.10;;;;;;;23.33;37.03;95228.38;5088770;28;20035;-82
2022/08/01 09:26:40;;;;;;;4.05;2.28;;;;;;;23.39;36.52;95229.28;5069340;28;20040;-81
2022/08/01 09:29:06;;;;;;;4.75;2.20;;;;;;;23.35;36.87;95226.22;5086511;28;20028;-81
2022/08/01 09:31:42;;;;;;;4.90;1.90;;;;;;;23.25;35.71;95229.72;5070588;28;20016;-80
2022/08/01 09:34:09;;;;;;;4.00;2.00;;;;;;;23.19;35.53;95228.88;5070242;28;20051;-81
2022/08/01 09:36:51;;;;;;;4.50;1.90;;;;;;;23.20;36.15;95218.72;5054862;28;20058;-79
2022/08/01 09:39:17;;;;;;;5.18;1.95;;;;;;;23.09;35.91;95213.19;5071175;28;20341;-81
2022/08/01 09:41:42;;;;;;;5.00;2.00;;;;;;;23.11;36.08;95220.31;5053087;28;20038;-79
2022/08/01 09:44:08;;;;;;;3.78;2.10;;;;;;;23.31;37.43;95223.19;5053124;28;20028;-81
2022/08/01 09:46:33;;;;;;;3.00;2.10;;;;;;;23.30;36.96;95213.34;5069771;28;20020;-80
2022/08/01 09:49:00;;;;;;;7.18;2.47;;;;;;;23.34;36.47;95213.63;5069919;28;20023;-80
2022/08/01 09:51:36;;;;;;;2.65;2.08;;;;;;;23.40;37.82;95226.28;5069615;28;20032;-79
2022/08/01 09:54:05;;;;;;;7.07;2.47;;;;;;;23.43;37.74;95227.66;5053539;28;20405;-81
2022/08/01 09:56:38;;;;;;;3.53;2.50;;;;;;;23.51;39.14;95235.38;5069364;28;20047;-80
2022/08/01 09:59:04;;;;;;;9.65;2.80;;;;;;;23.57;38.66;95242.53;5087414;28;20028;-80
2022/08/01 10:01:42;;;;;;;6.57;2.55;;;;;;;23.55;38.03;95231.00;5069532;28;20036;-80
2022/08/01 10:04:13;;;;;;;5.45;2.60;;;;;;;23.75;38.30;95228.66;5052805;28;20118;-79
2022/08/01 10:06:43;;;;;;;3.08;2.78;;;;;;;23.82;37.87;95234.72;5069894;28;20036;-79
2022/08/01 10:09:09;;;;;;;4.20;2.40;;;;;;;23.86;38.13;95227.59;5052847;28;20016;-81
2022/08/01 10:11:38;;;;;;;6.80;2.60;;;;;;;23.85;37.59;95220.50;5087626;28;20027;-82
2022/08/01 10:14:04;;;;;;;4.35;2.30;;;;;;;23.82;37.57;95221.03;5069612;28;20027;-79
2022/08/01 10:16:29;;;;;;;4.28;2.50;;;;;;;23.67;37.59;95224.50;5069353;28;20462;-79
2022/08/01 10:18:55;;;;;;;3.13;2.42;;;;;;;23.73;38.29;95219.91;5052160;28;20028;-81
2022/08/01 10:21:20;;;;;;;3.03;2.25;;;;;;;23.66;37.21;95212.75;5052463;28;20021;-80
2022/08/01 10:23:46;;;;;;;3.33;2.17;;;;;;;23.73;37.48;95212.50;5069522;28;20054;-80
2022/08/01 10:26:12;;;;;;;2.70;2.10;;;;;;;23.64;36.95;95212.19;5052375;28;20057;-79
2022/08/01 10:28:37;;;;;;;3.88;2.15;;;;;;;23.70;37.99;95216.59;5069354;28;20035;-79
2022/08/01 10:31:03;;;;;;;5.65;2.83;;;;;;;23.92;36.83;95212.03;5052317;28;20092;-80
2022/08/01 10:33:29;;;;;;;4.13;2.28;;;;;;;23.70;37.37;95205.66;5052327;28;20031;-81
2022/08/01 10:35:54;;;;;;;2.70;2.08;;;;;;;23.91;37.97;95199.41;5068774;28;20310;-80
2022/08/01 10:38:20;;;;;;;2.63;2.20;;;;;;;23.79;38.23;95197.75;5052081;28;20040;-79
2022/08/01 10:40:45;;;;;;;5.72;2.60;;;;;;;23.82;37.95;95191.75;5069106;28;20038;-81
2022/08/01 10:43:11;;;;;;;5.47;2.45;;;;;;;23.80;38.12;95207.59;5068609;28;20032;-80
2022/08/01 10:45:37;;;;;;;6.00;2.95;;;;;;;23.81;38.06;95198.28;5088065;28;20012;-80
2022/08/01 10:48:32;;;;;;;4.45;2.30;;;;;;;23.82;38.01;95194.47;5034993;28;20028;-82
2022/08/01 10:51:00;;;;;;;2.67;2.30;;;;;;;23.92;38.01;95195.59;5071243;28;20043;-81
2022/08/01 10:53:26;;;;;;;5.00;2.60;;;;;;;24.09;37.83;95189.91;5052199;28;20031;-80
2022/08/01 10:56:05;;;;;;;5.57;2.50;;;;;;;23.99;38.33;95187.94;5068893;28;20111;-81
2022/08/01 10:58:37;;;;;;;3.03;2.60;;;;;;;23.98;37.89;95202.75;5053058;28;20027;-80
2022/08/01 11:01:14;;;;;;;4.97;2.90;;;;;;;24.07;36.93;95214.00;5086650;28;20107;-80
2022/08/01 11:03:41;;;;;;;4.50;2.60;;;;;;;24.08;38.45;95191.00;5086516;28;20066;-79
2022/08/01 11:06:06;;;;;;;3.30;2.85;;;;;;;24.21;38.58;95203.41;5068339;28;20024;-80
2022/08/01 11:08:32;;;;;;;2.90;2.60;;;;;;;24.26;37.56;95184.22;5067184;28;20031;-81
2022/08/01 11:11:01;;;;;;;2.85;2.33;;;;;;;24.23;37.61;95184.75;5067902;28;20119;-84
2022/08/01 11:13:57;;;;;;;4.32;2.88;;;;;;;24.32;37.56;95188.63;5051561;28;20615;-80
2022/08/01 11:16:30;;;;;;;4.40;2.63;;;;;;;24.26;37.02;95188.88;5068196;28;20036;-81
2022/08/01 11:18:56;;;;;;;4.20;2.72;;;;;;;24.24;37.26;95182.84;5051558;28;20016;-80
2022/08/01 11:21:23;;;;;;;3.75;2.47;;;;;;;24.40;37.50;95186.44;5067745;28;20027;-80
2022/08/01 11:23:51;;;;;;;3.05;2.75;;;;;;;24.37;37.00;95184.25;5068210;28;20060;-81
2022/08/01 11:26:17;;;;;;;4.65;2.78;;;;;;;24.32;36.96;95171.34;5051251;28;20039;-81
2022/08/01 11:28:44;;;;;;;3.88;2.40;;;;;;;24.39;36.34;95182.06;5086485;28;20028;-80
2022/08/01 11:31:14;;;;;;;2.58;2.33;;;;;;;24.52;36.75;95176.03;5051620;28;20097;-80
2022/08/01 11:33:39;;;;;;;3.03;2.42;;;;;;;24.68;36.42;95170.56;5086514;28;20032;-80
2022/08/01 11:36:12;;;;;;;3.17;2.22;;;;;;;24.84;35.17;95181.53;5086551;28;20034;-80
2022/08/01 11:38:37;;;;;;;2.85;2.40;;;;;;;24.69;36.60;95174.97;5085469;28;20564;-80